createdAt,value
2022-12-08T09:05:22.100Z,1.43
2022-12-08T09:07:49.640Z,1.41
2022-12-08T09:10:17.075Z,1.42
2022-12-08T09:12:45.084Z,1.37
2022-12-08T09:15:12.551Z,1.47
2022-12-08T09:17:40.707Z,1.48
2022-12-08T09:20:08.475Z,1.33
2022-12-08T09:22:36.290Z,1.47
2022-12-08T09:25:03.808Z,1.22
2022-12-08T09:27:31.549Z,1.15
2022-12-08T09:29:58.957Z,1.10
2022-12-08T09:32:26.423Z,1.40
2022-12-08T09:34:54.425Z,1.41
2022-12-08T09:37:21.883Z,1.43
2022-12-08T09:39:49.360Z,1.35
2022-12-08T09:42:17.726Z,1.37
2022-12-08T09:44:45.101Z,1.41
2022-12-08T09:47:19.780Z,1.46
2022-12-08T09:49:52.965Z,1.57
2022-12-08T09:52:28.325Z,1.56
2022-12-08T09:54:58.309Z,1.50
2022-12-08T09:57:25.755Z,1.42
2022-12-08T09:59:54.087Z,1.57
2022-12-08T10:02:23.868Z,1.50
2022-12-08T10:04:51.610Z,1.70
2022-12-08T10:07:28.385Z,1.66
2022-12-08T10:09:59.070Z,1.42
2022-12-08T10:12:31.515Z,1.63
2022-12-08T10:15:00.336Z,1.49
2022-12-08T10:17:35.796Z,1.48
2022-12-08T10:20:17.140Z,1.46
2022-12-08T10:22:45.263Z,1.49
2022-12-08T10:25:15.776Z,1.60
2022-12-08T10:27:43.430Z,1.56
2022-12-08T10:30:12.202Z,1.64
2022-12-08T10:32:45.041Z,1.62
2022-12-08T10:35:13.139Z,1.46
2022-12-08T10:37:42.178Z,1.42
2022-12-08T10:40:19.301Z,1.49
2022-12-08T10:42:47.426Z,1.44
2022-12-08T10:45:53.524Z,1.58
2022-12-08T10:48:20.883Z,1.61
2022-12-08T10:50:55.749Z,1.69
2022-12-08T10:53:23.163Z,1.25
2022-12-08T10:56:03.133Z,1.37
2022-12-08T10:58:40.474Z,1.39
2022-12-08T11:01:12.967Z,1.43
2022-12-08T11:03:52.785Z,1.54
2022-12-08T11:06:23.123Z,1.48
2022-12-08T11:08:54.388Z,1.53
2022-12-08T11:11:27.499Z,1.67
2022-12-08T11:13:56.867Z,1.59
2022-12-08T11:16:24.340Z,1.62
2022-12-08T11:18:58.673Z,1.63
2022-12-08T11:21:31.719Z,1.75
2022-12-08T11:23:59.218Z,1.71
2022-12-08T11:26:30.600Z,1.77
2022-12-08T11:28:58.717Z,1.85
2022-12-08T11:31:33.439Z,1.92
2022-12-08T11:34:00.955Z,1.80
2022-12-08T11:36:29.166Z,1.79
2022-12-08T11:39:04.252Z,1.84
2022-12-08T11:41:34.357Z,1.88
2022-12-08T11:44:08.430Z,1.88
2022-12-08T11:46:41.213Z,1.91
2022-12-08T11:49:12.631Z,1.95
2022-12-08T11:51:59.138Z,1.94
2022-12-08T11:54:26.620Z,1.90
2022-12-08T11:56:57.614Z,1.89
2022-12-08T11:59:30.272Z,2.03
2022-12-08T12:01:58.251Z,1.93
2022-12-08T12:04:37.902Z,1.88
2022-12-08T12:07:06.645Z,2.04
2022-12-08T12:09:37.559Z,1.86
2022-12-08T12:12:14.447Z,1.79
2022-12-08T12:14:51.860Z,1.88
2022-12-08T12:17:25.894Z,1.93
2022-12-08T12:19:53.380Z,1.94
2022-12-08T12:22:20.773Z,2.03
2022-12-08T12:24:48.930Z,2.03
2022-12-08T12:27:28.565Z,2.06
2022-12-08T12:30:00.457Z,2.01
2022-12-08T12:32:27.909Z,2.03
2022-12-08T12:34:55.816Z,1.77
2022-12-08T12:37:27.037Z,1.98
2022-12-08T12:39:55.313Z,1.97
2022-12-08T12:42:38.346Z,2.00
2022-12-08T12:45:12.035Z,2.13
2022-12-08T12:47:48.556Z,2.08
2022-12-08T12:50:33.893Z,2.06
2022-12-08T12:53:16.696Z,2.02
2022-12-08T12:56:03.696Z,2.03
2022-12-08T12:58:31.303Z,2.09
2022-12-08T17:12:04.107Z,2.34
2022-12-08T17:14:34.548Z,2.53
2022-12-08T17:17:02.102Z,2.56
2022-12-08T17:19:29.725Z,2.55
2022-12-08T17:21:57.200Z,2.39
2022-12-08T17:24:29.021Z,2.57
2022-12-08T17:27:04.242Z,2.47
2022-12-08T17:29:31.997Z,2.44
2022-12-08T17:31:59.586Z,2.46
2022-12-08T17:34:27.175Z,2.59
2022-12-08T17:36:54.531Z,2.57
2022-12-08T17:39:21.873Z,2.53
2022-12-08T17:41:49.593Z,2.54
2022-12-08T17:44:17.557Z,2.44
2022-12-08T17:46:52.888Z,2.48
2022-12-08T17:49:21.942Z,2.47
2022-12-08T17:51:49.853Z,2.40
2022-12-08T17:54:18.194Z,2.45
2022-12-08T17:56:45.733Z,2.44
2022-12-08T17:59:13.334Z,2.50
2022-12-08T18:01:41.237Z,2.53
2022-12-08T18:04:09.576Z,2.48
2022-12-08T18:06:37.266Z,2.46
2022-12-08T18:09:06.861Z,2.55
2022-12-08T18:11:34.468Z,2.57
2022-12-08T18:14:09.444Z,2.57
2022-12-08T18:16:40.872Z,2.59
2022-12-08T18:19:09.955Z,2.57
2022-12-08T18:21:37.782Z,2.63
2022-12-08T18:24:05.471Z,2.56
2022-12-08T18:26:35.500Z,2.52
2022-12-08T18:29:03.461Z,2.63
2022-12-08T18:31:37.572Z,2.63
2022-12-08T18:34:06.729Z,2.57
2022-12-08T18:36:34.519Z,2.54
2022-12-08T18:39:10.679Z,2.52
2022-12-08T18:44:26.846Z,2.50
2022-12-08T18:46:57.171Z,2.50
2022-12-08T18:49:26.815Z,2.46
2022-12-08T18:51:54.703Z,2.48
2022-12-08T18:54:37.163Z,2.52
2022-12-08T18:57:11.423Z,2.55
2022-12-08T18:59:38.806Z,2.48
2022-12-08T19:02:11.030Z,2.52
2022-12-08T19:04:39.163Z,2.57
2022-12-08T19:07:06.627Z,2.52
2022-12-08T19:09:34.730Z,2.53
2022-12-08T19:12:03.437Z,2.47
2022-12-08T19:14:39.039Z,2.42
2022-12-08T19:17:06.862Z,2.44
2022-12-08T19:20:03.472Z,2.44
2022-12-08T19:22:39.908Z,2.42
2022-12-08T19:25:09.980Z,2.52
2022-12-08T19:27:37.936Z,2.47
2022-12-08T19:30:06.051Z,2.46
2022-12-08T19:32:38.049Z,2.45
2022-12-08T19:35:07.583Z,2.43
2022-12-08T19:37:35.098Z,2.55
2022-12-08T19:40:21.397Z,2.54
2022-12-08T19:43:07.536Z,2.56
2022-12-08T19:45:35.381Z,2.57
2022-12-08T19:48:02.826Z,2.63
2022-12-08T19:50:36.836Z,2.63
2022-12-08T19:53:11.580Z,2.66
2022-12-08T19:55:39.567Z,2.61
2022-12-08T19:58:07.368Z,2.60
2022-12-08T20:00:36.029Z,2.67
2022-12-08T20:03:05.078Z,2.68
2022-12-08T20:05:33.596Z,2.61
2022-12-08T20:08:02.498Z,2.62
2022-12-08T20:10:33.945Z,2.62
2022-12-08T20:13:20.575Z,2.57
2022-12-08T20:15:48.107Z,2.61
2022-12-08T20:18:17.273Z,2.53
2022-12-08T20:20:45.081Z,2.68
2022-12-08T20:23:12.874Z,2.63
2022-12-08T20:25:40.583Z,2.68
2022-12-08T20:28:08.119Z,2.63
2022-12-08T20:30:35.634Z,2.71
2022-12-08T20:33:03.113Z,2.77
2022-12-08T20:35:30.565Z,2.70
2022-12-08T20:37:58.132Z,2.68
2022-12-08T20:40:25.774Z,2.75
2022-12-08T20:42:53.281Z,2.79
2022-12-08T20:45:21.111Z,2.72
2022-12-08T20:47:49.292Z,2.77
2022-12-08T20:50:17.228Z,2.62
2022-12-08T20:52:44.825Z,2.76
2022-12-08T20:55:12.312Z,2.79
2022-12-08T20:57:40.175Z,2.71
2022-12-08T21:00:08.336Z,2.80
2022-12-08T21:02:36.251Z,2.78
2022-12-08T21:05:05.380Z,2.81
2022-12-08T21:07:33.780Z,2.88
2022-12-08T21:10:01.423Z,2.79
2022-12-08T21:12:29.254Z,2.83
2022-12-08T21:14:57.062Z,2.89
2022-12-08T21:17:24.629Z,2.87
2022-12-08T21:19:52.234Z,2.93
2022-12-08T21:22:21.140Z,2.78
2022-12-08T21:24:48.722Z,2.83
2022-12-08T21:27:16.225Z,2.89
2022-12-08T21:29:43.723Z,2.84
2022-12-08T21:32:11.209Z,2.86
2022-12-08T21:34:39.103Z,2.89
2022-12-08T21:37:06.765Z,2.92
2022-12-08T21:39:34.354Z,2.89
2022-12-08T21:42:22.863Z,2.89
2022-12-08T21:44:50.630Z,2.98
2022-12-08T21:47:18.399Z,2.96
2022-12-08T21:49:46.502Z,2.98
2022-12-08T21:52:13.914Z,2.97
2022-12-08T21:54:41.574Z,2.95
2022-12-08T21:57:08.981Z,2.94
2022-12-08T21:59:36.573Z,2.93
